createdAt,value
2023-04-27T00:02:14.221Z,8.53
2023-04-27T00:04:44.729Z,5.40
2023-04-27T00:07:12.859Z,9.60
2023-04-27T00:09:40.611Z,5.90
2023-04-27T00:12:08.515Z,9.97
2023-04-27T00:14:36.353Z,5.90
2023-04-27T00:17:04.316Z,9.17
2023-04-27T00:19:32.191Z,9.27
2023-04-27T00:22:01.521Z,8.23
2023-04-27T00:24:29.301Z,9.00
2023-04-27T00:26:57.810Z,7.20
2023-04-27T00:29:25.683Z,8.27
2023-04-27T00:31:53.705Z,9.67
2023-04-27T00:34:21.689Z,5.83
2023-04-27T00:36:49.476Z,6.47
2023-04-27T00:39:18.698Z,8.07
2023-04-27T00:41:46.614Z,6.57
2023-04-27T00:44:14.450Z,6.00
2023-04-27T00:46:42.287Z,7.20
2023-04-27T00:49:10.084Z,6.07
2023-04-27T00:51:37.952Z,6.97
2023-04-27T00:54:06.085Z,6.60
2023-04-27T00:56:35.434Z,6.67
2023-04-27T00:59:03.372Z,7.43
2023-04-27T01:01:31.492Z,10.13
2023-04-27T01:03:59.545Z,7.93
2023-04-27T01:06:28.239Z,7.10
2023-04-27T01:08:56.021Z,7.43
2023-04-27T01:11:24.492Z,6.83
2023-04-27T01:13:53.807Z,9.57
2023-04-27T01:16:21.976Z,7.60
2023-04-27T01:18:54.647Z,7.53
2023-04-27T01:21:22.492Z,10.30
2023-04-27T01:23:53.825Z,7.57
2023-04-27T01:26:22.529Z,9.50
2023-04-27T01:28:50.621Z,9.10
2023-04-27T01:31:18.668Z,8.53
2023-04-27T01:33:46.421Z,7.10
2023-04-27T01:36:14.448Z,7.43
2023-04-27T01:38:42.430Z,9.87
2023-04-27T01:41:13.797Z,11.03
2023-04-27T01:43:42.624Z,6.87
2023-04-27T01:46:11.742Z,9.83
2023-04-27T01:48:39.773Z,9.13
2023-04-27T01:51:07.938Z,10.93
2023-04-27T01:53:35.750Z,7.60
2023-04-27T01:56:03.543Z,12.50
2023-04-27T01:58:34.364Z,8.80
2023-04-27T02:01:02.280Z,8.90
2023-04-27T02:03:30.226Z,9.20
2023-04-27T02:05:58.296Z,7.27
2023-04-27T02:08:26.222Z,8.50
2023-04-27T02:11:18.704Z,8.10
2023-04-27T02:13:48.882Z,10.57
2023-04-27T02:16:16.772Z,7.77
2023-04-27T02:18:44.781Z,7.77
2023-04-27T02:21:12.620Z,10.40
2023-04-27T02:23:47.911Z,10.80
2023-04-27T02:26:22.353Z,10.57
2023-04-27T02:28:52.253Z,8.93
2023-04-27T02:31:20.747Z,9.37
2023-04-27T02:33:48.927Z,21.83
2023-04-27T02:36:16.784Z,11.27
2023-04-27T02:38:47.813Z,10.37
2023-04-27T02:41:15.739Z,11.37
2023-04-27T02:43:43.645Z,15.27
2023-04-27T02:46:16.288Z,11.80
2023-04-27T02:48:44.104Z,13.83
2023-04-27T02:51:11.988Z,13.20
2023-04-27T02:53:40.069Z,13.10
2023-04-27T02:56:08.175Z,12.40
2023-04-27T02:58:36.189Z,13.67
2023-04-27T03:01:04.763Z,13.83
2023-04-27T03:03:34.820Z,12.50
2023-04-27T03:06:03.676Z,16.10
2023-04-27T03:08:32.058Z,11.43
2023-04-27T03:10:59.971Z,10.83
2023-04-27T03:13:28.127Z,11.17
2023-04-27T03:15:56.050Z,10.80
2023-04-27T03:18:24.180Z,15.23
2023-04-27T03:20:53.588Z,11.33
2023-04-27T03:23:21.393Z,13.07
2023-04-27T03:25:49.321Z,11.03
2023-04-27T03:28:17.161Z,17.53
2023-04-27T03:30:45.065Z,14.80
2023-04-27T03:33:13.227Z,12.70
2023-04-27T03:35:41.228Z,11.33
2023-04-27T03:38:10.445Z,15.87
2023-04-27T03:40:38.306Z,14.30
2023-04-27T03:43:06.346Z,14.63
2023-04-27T03:45:34.160Z,13.47
2023-04-27T03:48:02.166Z,14.43
2023-04-27T03:50:30.409Z,11.73
2023-04-27T03:52:58.344Z,11.07
2023-04-27T03:55:27.670Z,11.60
2023-04-27T03:57:55.464Z,14.87
2023-04-27T04:00:23.699Z,11.47
2023-04-27T04:02:52.436Z,13.23
2023-04-27T04:05:20.553Z,12.60
2023-04-27T04:07:48.356Z,11.97
2023-04-27T04:10:16.404Z,13.33
2023-04-27T04:12:45.708Z,12.53
2023-04-27T04:15:13.735Z,12.97
2023-04-27T04:17:41.822Z,14.57
2023-04-27T04:20:10.869Z,10.27
2023-04-27T04:29:34.586Z,14.57
2023-04-27T04:32:38.984Z,12.73
2023-04-27T04:36:05.469Z,14.27
2023-04-27T04:42:00.008Z,15.10
2023-04-27T04:44:54.700Z,12.53
2023-04-27T04:47:23.151Z,15.63
2023-04-27T04:49:51.360Z,14.53
2023-04-27T04:52:19.124Z,18.80
2023-04-27T04:54:47.047Z,15.87
2023-04-27T04:57:14.766Z,12.53
2023-04-27T04:59:44.039Z,15.43
2023-04-27T05:02:11.697Z,12.23
2023-04-27T05:04:39.625Z,15.10
2023-04-27T05:07:07.721Z,16.60
2023-04-27T05:09:35.438Z,13.83
2023-04-27T05:12:03.265Z,13.57
2023-04-27T05:14:31.046Z,16.03
2023-04-27T05:17:00.205Z,16.23
2023-04-27T05:19:32.447Z,17.30
2023-04-27T05:22:00.423Z,13.40
2023-04-27T05:24:28.385Z,13.07
2023-04-27T05:26:56.219Z,10.90
2023-04-27T05:29:24.116Z,15.60
2023-04-27T05:31:51.954Z,12.90
2023-04-27T05:34:21.173Z,13.20
2023-04-27T05:36:48.958Z,13.53
2023-04-27T05:39:16.927Z,14.07
2023-04-27T05:41:44.972Z,12.07
2023-04-27T05:44:12.754Z,15.40
2023-04-27T05:46:40.593Z,14.10
2023-04-27T05:49:08.339Z,14.17
2023-04-27T05:51:38.396Z,10.47
2023-04-27T05:54:06.337Z,10.87
2023-04-27T05:56:34.326Z,13.20
2023-04-27T05:59:02.807Z,14.37
2023-04-27T06:01:30.933Z,14.60
2023-04-27T06:04:01.640Z,11.83
2023-04-27T06:06:32.854Z,11.17
2023-04-27T06:09:06.139Z,9.47
2023-04-27T06:11:33.894Z,12.23
2023-04-27T06:14:01.699Z,12.90
2023-04-27T06:16:30.206Z,8.53
2023-04-27T06:18:58.476Z,11.53
2023-04-27T06:21:26.541Z,7.57
2023-04-27T06:23:54.368Z,8.40
2023-04-27T06:26:26.190Z,8.43
2023-04-27T06:28:54.002Z,9.80
2023-04-27T06:31:21.897Z,11.50
2023-04-27T06:33:52.541Z,9.57
2023-04-27T06:36:21.024Z,10.73
2023-04-27T06:38:49.121Z,9.43
2023-04-27T06:41:17.589Z,10.43
2023-04-27T06:44:08.324Z,9.87
2023-04-27T06:46:36.886Z,8.20
2023-04-27T06:49:04.771Z,9.70
2023-04-27T06:51:33.059Z,8.57
2023-04-27T06:54:01.002Z,9.43
2023-04-27T06:56:43.330Z,12.50
2023-04-27T06:59:13.061Z,9.50
2023-04-27T07:01:41.233Z,7.80
2023-04-27T07:04:09.206Z,9.43
2023-04-27T07:06:37.408Z,9.17
2023-04-27T07:09:13.198Z,9.87
2023-04-27T07:11:44.704Z,9.30
2023-04-27T07:14:13.946Z,8.53
2023-04-27T07:16:41.922Z,11.10
2023-04-27T07:19:09.812Z,8.67
2023-04-27T07:21:37.984Z,12.40
2023-04-27T07:24:09.554Z,11.63
2023-04-27T07:26:37.734Z,10.60
2023-04-27T07:29:18.864Z,12.57
2023-04-27T07:31:53.068Z,9.13
2023-04-27T07:34:20.866Z,8.60
2023-04-27T07:36:48.608Z,10.57
2023-04-27T07:39:17.582Z,7.10
2023-04-27T07:41:45.701Z,7.67
2023-04-27T07:44:13.532Z,7.40
2023-04-27T07:46:41.416Z,9.50
2023-04-27T07:52:06.308Z,7.73
2023-04-27T07:54:34.223Z,7.70
2023-04-27T07:57:04.041Z,8.10
2023-04-27T07:59:31.819Z,8.68
2023-04-27T08:02:15.038Z,6.90
2023-04-27T08:04:48.862Z,7.72
2023-04-27T08:07:17.799Z,9.05
2023-04-27T08:09:45.880Z,9.65
2023-04-27T08:12:13.932Z,8.90
2023-04-27T08:14:41.994Z,9.60
2023-04-27T08:17:21.613Z,7.50
2023-04-27T08:20:00.257Z,8.25
2023-04-27T08:25:48.167Z,11.73
2023-04-27T08:28:16.142Z,7.38
2023-04-27T08:31:58.156Z,7.75
2023-04-27T08:35:18.328Z,7.65
2023-04-27T08:38:43.515Z,8.02
2023-04-27T08:44:33.102Z,8.13
2023-04-27T08:47:00.900Z,7.38
2023-04-27T08:49:28.516Z,8.00
2023-04-27T08:51:56.373Z,6.00
2023-04-27T08:54:24.138Z,7.88
2023-04-27T08:56:53.462Z,9.00
2023-04-27T08:59:21.443Z,8.20
2023-04-27T09:01:49.759Z,6.75
2023-04-27T09:04:19.799Z,6.90
2023-04-27T09:06:50.265Z,8.38
2023-04-27T09:09:27.473Z,6.95
2023-04-27T09:11:57.997Z,6.68
2023-04-27T09:14:26.795Z,7.80
2023-04-27T09:16:59.649Z,7.00
2023-04-27T09:19:29.031Z,7.88
2023-04-27T09:22:07.774Z,7.00
2023-04-27T09:24:36.529Z,6.63
2023-04-27T09:27:09.776Z,6.13
2023-04-27T09:29:43.684Z,6.93
2023-04-27T09:32:18.648Z,6.45
2023-04-27T09:34:49.080Z,7.80
2023-04-27T09:37:16.826Z,6.30
2023-04-27T09:39:44.673Z,6.35
2023-04-27T09:42:15.924Z,6.97
2023-04-27T09:44:44.656Z,6.78
2023-04-27T09:47:12.334Z,7.80
2023-04-27T09:49:40.261Z,6.22
2023-04-27T09:52:08.259Z,6.43
2023-04-27T09:54:36.070Z,6.18
2023-04-27T09:57:12.730Z,5.97
2023-04-27T09:59:58.495Z,6.70
2023-04-27T10:02:26.232Z,5.80
2023-04-27T10:05:17.968Z,6.90
2023-04-27T10:07:46.408Z,5.78
2023-04-27T10:10:17.612Z,5.78
2023-04-27T10:12:45.482Z,6.07
2023-04-27T10:15:30.935Z,7.07
2023-04-27T10:18:05.048Z,5.88
2023-04-27T10:20:33.503Z,5.68
2023-04-27T10:23:01.580Z,5.65
2023-04-27T10:25:30.134Z,5.53
2023-04-27T10:27:59.237Z,5.57
2023-04-27T10:30:32.521Z,6.32
2023-04-27T10:33:01.286Z,6.95
2023-04-27T10:35:39.256Z,6.18
2023-04-27T10:38:08.367Z,5.93
2023-04-27T10:40:37.263Z,6.47
2023-04-27T10:43:12.269Z,6.18
2023-04-27T10:45:41.616Z,5.82
2023-04-27T10:48:11.082Z,5.68
2023-04-27T10:50:48.960Z,5.18
2023-04-27T10:53:18.524Z,5.32
2023-04-27T10:55:57.078Z,5.95
2023-04-27T10:58:29.832Z,6.57
2023-04-27T11:01:06.689Z,5.82
2023-04-27T11:03:35.155Z,5.80
2023-04-27T11:06:04.138Z,7.15
2023-04-27T11:08:32.650Z,5.35
2023-04-27T11:11:01.831Z,7.10
2023-04-27T11:13:29.908Z,5.47
2023-04-27T11:15:58.386Z,6.72
2023-04-27T11:18:30.708Z,5.88
2023-04-27T11:21:07.748Z,7.38
2023-04-27T11:23:38.013Z,5.72
2023-04-27T11:26:10.814Z,7.40
2023-04-27T11:28:38.729Z,8.95
2023-04-27T11:31:08.150Z,7.25
2023-04-27T11:33:39.662Z,6.85
2023-04-27T11:36:17.191Z,5.70
2023-04-27T11:38:44.883Z,9.48
2023-04-27T11:41:13.028Z,6.85
2023-04-27T11:43:42.227Z,6.22
2023-04-27T11:46:11.181Z,8.90
2023-04-27T11:48:41.135Z,6.38
2023-04-27T11:51:11.014Z,7.85
2023-04-27T11:53:39.167Z,7.30
2023-04-27T11:56:08.287Z,8.55
2023-04-27T11:58:36.200Z,7.93
2023-04-27T12:01:04.447Z,7.72
2023-04-27T12:03:32.515Z,7.38
2023-04-27T12:08:32.518Z,7.43
2023-04-27T12:11:00.253Z,9.27
2023-04-27T12:13:28.516Z,7.88
2023-04-27T12:15:56.260Z,7.40
2023-04-27T12:18:24.260Z,6.20
2023-04-27T12:20:51.970Z,7.90
2023-04-27T12:23:21.162Z,8.52
2023-04-27T12:25:49.278Z,7.22
2023-04-27T12:28:19.208Z,8.57
2023-04-27T12:30:47.217Z,9.70
2023-04-27T12:33:15.023Z,7.45
2023-04-27T12:35:42.762Z,7.10
2023-04-27T12:38:10.739Z,7.55
2023-04-27T12:40:39.936Z,7.35
2023-04-27T12:43:08.169Z,7.55
2023-04-27T12:45:36.122Z,8.48
2023-04-27T12:48:04.387Z,7.55
2023-04-27T12:50:32.887Z,7.50
2023-04-27T12:53:00.769Z,8.75
2023-04-27T12:55:32.936Z,7.15
2023-04-27T12:58:04.672Z,8.07
2023-04-27T13:00:32.471Z,8.73
2023-04-27T13:03:00.553Z,7.00
2023-04-27T13:05:31.288Z,7.38
2023-04-27T13:07:59.797Z,7.45
2023-04-27T13:10:27.586Z,7.85
2023-04-27T13:12:55.562Z,7.65
2023-04-27T13:15:24.737Z,8.00
2023-04-27T13:17:53.225Z,8.93
2023-04-27T13:20:21.279Z,7.88
2023-04-27T13:22:49.257Z,8.25
2023-04-27T13:25:17.542Z,7.75
2023-04-27T13:27:45.607Z,9.50
2023-04-27T13:30:13.691Z,8.10
2023-04-27T13:32:42.784Z,7.30
2023-04-27T13:35:10.814Z,7.78
2023-04-27T13:37:39.943Z,8.48
2023-04-27T13:40:10.790Z,8.35
2023-04-27T13:42:38.899Z,9.00
2023-04-27T13:45:08.586Z,7.53
2023-04-27T13:47:37.617Z,8.82
2023-04-27T13:50:08.366Z,8.00
2023-04-27T13:52:39.455Z,8.87
2023-04-27T13:55:08.683Z,8.75
2023-04-27T13:57:36.520Z,9.73
2023-04-27T14:00:11.603Z,10.67
2023-04-27T14:02:40.386Z,9.57
2023-04-27T14:05:10.112Z,9.47
2023-04-27T14:07:38.000Z,8.67
2023-04-27T14:10:06.896Z,8.57
2023-04-27T14:12:35.712Z,9.13
2023-04-27T14:15:03.581Z,9.57
2023-04-27T14:17:31.410Z,9.20
2023-04-27T14:19:59.350Z,9.60
2023-04-27T14:22:28.758Z,9.20
2023-04-27T14:24:58.899Z,10.13
2023-04-27T14:27:26.924Z,9.87
2023-04-27T14:29:54.678Z,9.30
2023-04-27T14:32:22.647Z,8.10
2023-04-27T14:34:50.511Z,8.70
2023-04-27T14:37:21.172Z,8.73
2023-04-27T14:39:50.376Z,9.10
2023-04-27T14:42:18.212Z,13.43
2023-04-27T14:44:47.560Z,8.93
2023-04-27T14:47:16.534Z,8.87
2023-04-27T14:49:44.369Z,10.20
2023-04-27T14:52:12.158Z,9.53
2023-04-27T14:54:41.563Z,10.20
2023-04-27T14:57:10.644Z,8.80
2023-04-27T14:59:38.576Z,8.90
2023-04-27T15:02:06.303Z,7.87
2023-04-27T15:04:35.386Z,9.50
2023-04-27T15:07:03.326Z,8.83
2023-04-27T15:09:31.242Z,8.67
2023-04-27T15:11:59.016Z,9.63
2023-04-27T15:14:28.162Z,9.53
2023-04-27T15:16:58.814Z,10.97
2023-04-27T15:19:26.783Z,7.83
2023-04-27T15:21:54.540Z,8.73
2023-04-27T15:24:22.778Z,8.43
2023-04-27T15:26:50.553Z,8.83
2023-04-27T15:29:18.540Z,8.57
2023-04-27T15:31:48.266Z,7.67
2023-04-27T15:34:16.197Z,10.17
2023-04-27T15:36:43.952Z,8.17
2023-04-27T15:39:11.921Z,10.53
2023-04-27T15:41:40.767Z,9.07
2023-04-27T15:44:08.602Z,8.37
2023-04-27T15:46:36.505Z,7.50
2023-04-27T15:49:06.114Z,10.43
2023-04-27T15:51:33.938Z,9.50
2023-04-27T15:54:02.190Z,9.50
2023-04-27T15:56:30.716Z,8.93
2023-04-27T15:58:59.319Z,7.60
2023-04-27T16:01:28.296Z,7.83
2023-04-27T16:03:56.840Z,7.73
2023-04-27T16:06:33.585Z,8.40
2023-04-27T16:09:03.733Z,10.13
2023-04-27T16:11:31.698Z,7.93
2023-04-27T16:13:59.684Z,8.07
2023-04-27T16:16:27.858Z,7.93
2023-04-27T16:18:55.889Z,8.67
2023-04-27T16:21:23.723Z,8.13
2023-04-27T16:23:52.871Z,8.97
2023-04-27T16:26:20.888Z,13.57
2023-04-27T16:28:48.705Z,8.33
2023-04-27T16:31:16.560Z,8.80
2023-04-27T16:33:44.441Z,7.67
2023-04-27T16:36:12.301Z,8.03
2023-04-27T16:38:40.245Z,6.63
2023-04-27T16:41:10.498Z,8.27
2023-04-27T16:43:38.239Z,8.10
2023-04-27T16:46:08.957Z,7.30
2023-04-27T16:49:22.417Z,7.20
2023-04-27T16:54:56.497Z,9.13
2023-04-27T16:57:25.814Z,7.77
2023-04-27T16:59:53.625Z,7.73
2023-04-27T17:02:25.134Z,16.83
2023-04-27T17:04:53.880Z,7.33
2023-04-27T17:07:24.133Z,7.30
2023-04-27T17:10:33.320Z,12.67
2023-04-27T17:23:57.623Z,7.40
2023-04-27T17:33:14.786Z,7.63
2023-04-27T17:35:44.570Z,9.27
2023-04-27T17:38:26.891Z,7.50
2023-04-27T17:41:01.419Z,9.70
2023-04-27T17:43:29.998Z,9.03
2023-04-27T17:45:59.059Z,7.77
2023-04-27T17:48:32.685Z,7.23
2023-04-27T17:51:02.202Z,9.47
2023-04-27T17:53:30.771Z,11.10
2023-04-27T17:55:59.634Z,9.07
2023-04-27T17:58:28.699Z,6.90
2023-04-27T18:00:59.030Z,7.73
2023-04-27T18:03:29.446Z,7.73
2023-04-27T18:06:00.891Z,6.47
2023-04-27T18:08:28.814Z,7.03
2023-04-27T18:11:21.318Z,7.87
2023-04-27T18:13:53.685Z,6.87
2023-04-27T18:16:21.543Z,8.63
2023-04-27T18:18:50.893Z,7.03
2023-04-27T18:21:26.567Z,7.00
2023-04-27T18:23:58.056Z,7.37
2023-04-27T18:26:31.283Z,6.93
2023-04-27T18:29:45.598Z,6.50
2023-04-27T18:32:33.640Z,9.13
2023-04-27T18:35:03.624Z,8.20
2023-04-27T18:37:57.521Z,9.57
2023-04-27T18:44:29.185Z,7.20
2023-04-27T18:47:57.548Z,7.60
2023-04-27T18:54:48.284Z,9.63
2023-04-27T18:57:56.748Z,9.80
2023-04-27T19:00:33.670Z,6.77
2023-04-27T19:03:01.956Z,8.33
2023-04-27T19:05:36.482Z,7.03
2023-04-27T19:08:06.387Z,9.00
2023-04-27T19:10:46.837Z,7.40
2023-04-27T19:13:19.848Z,6.83
2023-04-27T19:15:49.181Z,8.33
2023-04-27T19:18:23.152Z,8.30
2023-04-27T19:21:16.170Z,8.27
2023-04-27T19:24:30.204Z,7.97
2023-04-27T19:27:26.668Z,7.63
2023-04-27T19:30:14.990Z,7.20
2023-04-27T19:36:01.657Z,8.47
2023-04-27T19:38:31.786Z,7.37
2023-04-27T19:41:07.024Z,9.73
2023-04-27T19:44:07.932Z,7.07
2023-04-27T19:46:35.666Z,9.77
2023-04-27T19:49:03.665Z,7.80
2023-04-27T19:51:33.006Z,9.73
2023-04-27T19:54:01.621Z,8.23
2023-04-27T19:56:31.023Z,8.50
2023-04-27T19:58:58.768Z,7.17
2023-04-27T20:01:26.868Z,7.80
2023-04-27T20:03:56.112Z,8.53
2023-04-27T20:06:24.071Z,9.77
2023-04-27T20:08:52.102Z,7.53
2023-04-27T20:11:20.158Z,8.80
2023-04-27T20:13:49.320Z,10.17
2023-04-27T20:16:17.417Z,9.53
2023-04-27T20:18:46.006Z,8.10
2023-04-27T20:21:13.906Z,7.53
2023-04-27T20:23:41.831Z,7.27
2023-04-27T20:26:09.661Z,7.13
2023-04-27T20:28:37.516Z,7.33
2023-04-27T20:31:06.919Z,7.73
2023-04-27T20:33:34.855Z,8.77
2023-04-27T20:36:14.111Z,7.47
2023-04-27T20:38:45.510Z,9.10
2023-04-27T20:41:13.277Z,7.63
2023-04-27T20:43:41.170Z,9.27
2023-04-27T20:46:11.238Z,10.03
2023-04-27T20:48:39.291Z,8.50
2023-04-27T20:51:07.262Z,7.53
2023-04-27T20:53:35.118Z,10.33
2023-04-27T20:56:03.766Z,7.70
2023-04-27T20:58:31.763Z,10.00
2023-04-27T21:00:59.732Z,8.60
2023-04-27T21:03:29.041Z,7.50
2023-04-27T21:05:57.057Z,8.33
2023-04-27T21:08:24.936Z,9.00
2023-04-27T21:10:52.762Z,8.53
2023-04-27T21:13:20.785Z,7.23
2023-04-27T21:15:48.711Z,7.50
2023-04-27T21:18:28.959Z,8.93
2023-04-27T21:20:59.169Z,9.67
2023-04-27T21:23:26.982Z,8.80
2023-04-27T21:25:54.749Z,8.87
2023-04-27T21:28:22.614Z,6.90
2023-04-27T21:30:50.509Z,14.43
2023-04-27T21:33:18.441Z,9.30
2023-04-27T21:35:46.173Z,8.57
2023-04-27T21:38:15.547Z,8.07
2023-04-27T21:40:43.625Z,8.43
2023-04-27T21:43:11.517Z,9.27
2023-04-27T21:45:39.658Z,8.43
2023-04-27T21:48:07.511Z,8.57
2023-04-27T21:50:35.423Z,8.57
2023-04-27T21:53:03.223Z,15.80
2023-04-27T21:55:32.509Z,10.70
2023-04-27T21:58:00.398Z,9.27
2023-04-27T22:00:28.560Z,8.00
2023-04-27T22:02:56.830Z,7.73
2023-04-27T22:05:29.286Z,10.67
2023-04-27T22:08:00.080Z,9.20
2023-04-27T22:10:27.924Z,7.53
2023-04-27T22:13:00.231Z,9.50
2023-04-27T22:15:30.606Z,11.03
2023-04-27T22:18:01.489Z,7.87
2023-04-27T22:20:29.490Z,8.77
2023-04-27T22:22:57.309Z,8.00
2023-04-27T22:25:25.250Z,7.03
2023-04-27T22:27:53.313Z,6.97
2023-04-27T22:30:22.516Z,8.00
2023-04-27T22:32:50.541Z,8.17
2023-04-27T22:35:26.496Z,6.93
2023-04-27T22:37:56.037Z,7.73
2023-04-27T22:40:24.419Z,11.13
2023-04-27T22:42:52.443Z,8.53
2023-04-27T22:45:22.088Z,7.07
2023-04-27T22:47:50.120Z,7.77
2023-04-27T22:50:18.060Z,8.63
2023-04-27T22:52:45.994Z,6.83
2023-04-27T22:55:14.135Z,6.77
2023-04-27T22:57:42.101Z,7.63
2023-04-27T23:00:12.062Z,6.17
2023-04-27T23:02:41.677Z,7.00
2023-04-27T23:05:10.717Z,6.87
2023-04-27T23:07:38.780Z,6.10
2023-04-27T23:10:07.571Z,7.37
2023-04-27T23:12:35.382Z,6.20
2023-04-27T23:15:03.351Z,5.63
2023-04-27T23:17:31.585Z,6.03
2023-04-27T23:20:01.630Z,8.77
2023-04-27T23:22:29.738Z,7.53
2023-04-27T23:24:57.682Z,7.83
2023-04-27T23:27:25.640Z,7.27
2023-04-27T23:29:53.514Z,5.13
2023-04-27T23:32:21.811Z,6.57
2023-04-27T23:34:49.808Z,7.33
2023-04-27T23:37:20.235Z,6.03
2023-04-27T23:39:48.038Z,5.03
2023-04-27T23:42:15.932Z,5.60
2023-04-27T23:44:44.036Z,5.07
2023-04-27T23:47:12.043Z,5.30
2023-04-27T23:49:40.539Z,7.47
2023-04-27T23:52:11.531Z,7.90
2023-04-27T23:54:50.262Z,6.63
2023-04-27T23:57:25.439Z,4.67
2023-04-27T23:59:53.315Z,6.43
